Time;durP1;ratioP1;P1;durP2;ratioP2;P2;SDS_P1;SDS_P2;PMS_P1;PMS_P2;Temp;Humidity;BMP_temperature;BMP_pressure;BME280_temperature;BME280_humidity;BME280_pressure;Samples;Min_cycle;Max_cycle;Signal;HPM_P1;HPM_P2
2022/06/09 00:00:23;;;;;;;1999.90;999.90;;;14.60;99.90;;;;;;5072544;28;20244;-73
2022/06/09 00:02:54;;;;;;;1999.90;999.90;;;14.60;99.90;;;;;;5072375;28;20640;-73
2022/06/09 00:05:21;;;;;;;1999.90;999.90;;;14.60;99.90;;;;;;5072555;28;20406;-73
2022/06/09 00:07:47;;;;;;;1999.90;999.90;;;14.60;99.90;;;;;;5073445;28;20780;-73
2022/06/09 00:10:20;;;;;;;1999.90;999.90;;;14.60;99.90;;;;;;5073422;28;20450;-72
2022/06/09 00:12:45;;;;;;;1999.90;999.90;;;14.50;99.90;;;;;;5072683;28;20775;-73
2022/06/09 00:15:13;;;;;;;1999.90;999.90;;;14.40;99.90;;;;;;5072502;28;20401;-72
2022/06/09 00:17:39;;;;;;;1999.90;999.90;;;14.40;99.90;;;;;;5072437;28;20176;-73
2022/06/09 00:20:05;;;;;;;1999.90;999.90;;;14.40;99.90;;;;;;5072457;28;20418;-73
2022/06/09 00:22:31;;;;;;;1999.90;999.90;;;14.40;99.90;;;;;;5072002;28;20903;-73
2022/06/09 00:24:57;;;;;;;1999.90;999.90;;;14.40;99.90;;;;;;5072519;28;20400;-73
2022/06/09 00:27:23;;;;;;;1999.90;999.90;;;14.40;99.90;;;;;;5073307;28;20179;-73
2022/06/09 00:29:49;;;;;;;1999.90;999.90;;;14.40;99.90;;;;;;5072416;28;20526;-72
2022/06/09 00:32:14;;;;;;;1999.90;999.90;;;14.40;99.90;;;;;;5072657;28;20178;-73
2022/06/09 00:34:40;;;;;;;1999.90;999.90;;;14.40;99.90;;;;;;5072753;28;20251;-73
2022/06/09 00:37:06;;;;;;;1999.90;999.90;;;14.30;99.90;;;;;;5074573;28;20210;-73
2022/06/09 00:39:31;;;;;;;1999.90;999.90;;;14.40;99.90;;;;;;5076261;28;20234;-73
2022/06/09 00:41:58;;;;;;;1999.90;999.90;;;14.40;99.90;;;;;;5076619;28;20170;-73
2022/06/09 00:44:26;;;;;;;1999.90;999.90;;;14.40;99.90;;;;;;5075542;28;20177;-72
2022/06/09 00:47:07;;;;;;;1999.90;999.90;;;14.40;99.90;;;;;;5076191;28;20464;-73
2022/06/09 00:49:43;;;;;;;1999.90;999.90;;;14.30;99.90;;;;;;5075453;28;20433;-73
2022/06/09 00:52:13;;;;;;;1999.90;999.90;;;14.40;99.90;;;;;;5075799;28;20412;-72
2022/06/09 00:54:43;;;;;;;1999.90;999.90;;;14.40;99.90;;;;;;5075392;28;20407;-73
2022/06/09 00:57:25;;;;;;;1999.90;999.90;;;14.40;99.90;;;;;;5075354;28;20408;-73
2022/06/09 00:59:57;;;;;;;1999.90;999.90;;;14.50;99.90;;;;;;5075584;28;20455;-73
2022/06/09 01:02:24;;;;;;;1999.90;999.90;;;14.50;99.90;;;;;;5075867;28;20398;-72
2022/06/09 01:04:52;;;;;;;1999.90;999.90;;;14.50;99.90;;;;;;5075403;28;20412;-73
2022/06/09 01:07:21;;;;;;;1999.90;999.90;;;14.60;99.90;;;;;;5076369;28;20411;-73
2022/06/09 01:09:47;;;;;;;1999.90;999.90;;;14.50;99.90;;;;;;5076136;28;20429;-73
2022/06/09 01:12:27;;;;;;;1999.90;999.90;;;14.60;99.90;;;;;;5076300;28;20458;-73
2022/06/09 01:14:59;;;;;;;1999.90;999.90;;;14.50;99.90;;;;;;5076248;28;20174;-72
2022/06/09 01:17:26;;;;;;;1999.90;999.90;;;14.50;99.90;;;;;;5076442;28;20411;-73
2022/06/09 01:20:28;;;;;;;1999.90;999.90;;;14.50;99.90;;;;;;5075753;28;20452;-73
2022/06/09 01:22:59;;;;;;;1999.90;999.90;;;14.50;99.90;;;;;;5075770;28;20405;-73
2022/06/09 01:25:44;;;;;;;1999.90;999.90;;;14.50;99.90;;;;;;5075858;28;20436;-73
2022/06/09 01:28:21;;;;;;;1999.90;999.90;;;14.40;99.90;;;;;;5076004;28;20759;-73
2022/06/09 01:31:11;;;;;;;1999.90;999.90;;;14.40;99.90;;;;;;5075479;28;20432;-72
2022/06/09 01:33:44;;;;;;;1999.90;999.90;;;14.40;99.90;;;;;;5075651;28;20459;-73
2022/06/09 01:36:36;;;;;;;1999.90;999.90;;;14.40;99.90;;;;;;5074774;28;20407;-73
2022/06/09 01:39:05;;;;;;;1999.90;999.90;;;14.50;99.90;;;;;;5074966;28;20496;-73
2022/06/09 01:41:31;;;;;;;1999.90;999.90;;;14.50;99.90;;;;;;5075160;28;20413;-72
2022/06/09 01:43:57;;;;;;;1999.90;999.90;;;14.40;99.90;;;;;;5075074;28;20467;-72
2022/06/09 01:46:35;;;;;;;1999.90;999.90;;;14.40;99.90;;;;;;5074557;28;20453;-73
2022/06/09 01:49:15;;;;;;;1999.90;999.90;;;14.50;99.90;;;;;;5074399;28;20421;-73
2022/06/09 01:51:44;;;;;;;1999.90;999.90;;;14.40;99.90;;;;;;5075191;28;20418;-73
2022/06/09 01:54:21;;;;;;;1999.90;999.90;;;14.50;99.90;;;;;;5073657;28;20519;-73
2022/06/09 01:57:03;;;;;;;1999.90;999.90;;;14.50;99.90;;;;;;5073832;28;20412;-73
2022/06/09 01:59:39;;;;;;;1999.90;999.90;;;14.40;99.90;;;;;;5073617;28;20454;-73
2022/06/09 02:02:12;;;;;;;1999.90;999.90;;;14.50;99.90;;;;;;5073741;28;20397;-73
2022/06/09 02:04:43;;;;;;;1999.90;999.90;;;14.50;99.90;;;;;;5073356;28;20388;-73
2022/06/09 02:07:10;;;;;;;1999.90;999.90;;;14.60;99.90;;;;;;5073602;28;20756;-73
2022/06/09 02:09:37;;;;;;;1999.90;999.90;;;14.60;99.90;;;;;;5073500;28;20958;-73
2022/06/09 02:12:14;;;;;;;1999.90;999.90;;;14.60;99.90;;;;;;5073381;28;20495;-73
2022/06/09 02:14:44;;;;;;;1999.90;999.90;;;14.60;99.90;;;;;;5073241;28;20768;-73
2022/06/09 02:17:10;;;;;;;1999.90;999.90;;;14.60;99.90;;;;;;5073461;28;20427;-73
2022/06/09 02:19:38;;;;;;;1999.90;999.90;;;14.60;99.90;;;;;;5073201;28;20862;-73
2022/06/09 02:22:06;;;;;;;1999.90;999.90;;;14.60;99.90;;;;;;5073261;28;20172;-73
2022/06/09 02:24:32;;;;;;;1999.90;999.90;;;14.60;99.90;;;;;;5072879;28;20898;-73
2022/06/09 02:26:58;;;;;;;1999.90;999.90;;;14.50;99.90;;;;;;5073243;28;20409;-71
2022/06/09 02:29:24;;;;;;;1999.90;999.90;;;14.30;99.90;;;;;;5073086;28;20997;-71
2022/06/09 02:31:50;;;;;;;1999.90;999.90;;;14.20;99.90;;;;;;5073114;28;20398;-70
2022/06/09 02:34:16;;;;;;;1999.90;999.90;;;14.00;99.90;;;;;;5072676;28;20457;-71
2022/06/09 02:36:42;;;;;;;1999.90;999.90;;;13.90;99.90;;;;;;5073129;28;20168;-71
2022/06/09 02:39:08;;;;;;;1999.90;999.90;;;13.90;99.90;;;;;;5072639;28;20470;-72
2022/06/09 02:41:34;;;;;;;1999.90;999.90;;;13.80;99.90;;;;;;5072930;28;20658;-71
2022/06/09 02:43:59;;;;;;;1999.90;999.90;;;13.70;99.90;;;;;;5072620;28;20164;-72
2022/06/09 02:46:25;;;;;;;1999.90;999.90;;;13.60;99.90;;;;;;5072751;28;20409;-70
2022/06/09 02:48:53;;;;;;;1999.90;999.90;;;13.60;99.90;;;;;;5072669;28;20187;-71
2022/06/09 02:51:25;;;;;;;1999.90;999.90;;;13.50;99.90;;;;;;5071438;28;20172;-71
2022/06/09 02:53:53;;;;;;;1999.90;999.90;;;13.50;99.90;;;;;;5072551;28;20437;-71
2022/06/09 02:56:19;;;;;;;1999.90;999.90;;;13.50;99.90;;;;;;5072337;28;20414;-71
2022/06/09 02:58:44;;;;;;;1999.90;999.90;;;13.50;99.90;;;;;;5071898;28;20463;-70
2022/06/09 03:01:10;;;;;;;1999.90;999.90;;;13.50;99.90;;;;;;5072287;28;20395;-70
2022/06/09 03:03:36;;;;;;;1999.90;999.90;;;13.40;99.90;;;;;;5072462;28;20163;-71
2022/06/09 03:06:03;;;;;;;1999.90;999.90;;;13.50;99.90;;;;;;5072149;28;20858;-70
2022/06/09 03:08:29;;;;;;;1999.90;999.90;;;13.50;99.90;;;;;;5072227;28;20181;-70
2022/06/09 03:10:54;;;;;;;1999.90;999.90;;;13.50;99.90;;;;;;5072407;28;20750;-70
2022/06/09 03:13:20;;;;;;;1999.90;999.90;;;13.50;99.90;;;;;;5072361;28;20413;-70
2022/06/09 03:15:47;;;;;;;1999.90;999.90;;;13.50;99.90;;;;;;5072083;28;20173;-69
2022/06/09 03:18:14;;;;;;;1999.90;999.90;;;13.50;99.90;;;;;;5072214;28;20195;-70
2022/06/09 03:20:40;;;;;;;1999.90;999.90;;;13.50;99.90;;;;;;5072125;28;20480;-70
2022/06/09 03:23:06;;;;;;;1999.90;999.90;;;13.50;99.90;;;;;;5072238;28;21080;-68
2022/06/09 03:25:32;;;;;;;1999.90;999.90;;;13.60;99.90;;;;;;5071938;28;20411;-70
2022/06/09 03:27:57;;;;;;;1999.90;999.90;;;13.60;99.90;;;;;;5072217;28;20171;-70
2022/06/09 03:30:23;;;;;;;1999.90;999.90;;;13.70;99.90;;;;;;5072050;28;20991;-70
2022/06/09 03:32:49;;;;;;;1999.90;999.90;;;13.70;99.90;;;;;;5072132;28;20182;-70
2022/06/09 03:35:14;;;;;;;1999.90;999.90;;;13.80;99.90;;;;;;5071763;28;20168;-69
2022/06/09 03:37:40;;;;;;;1999.90;999.90;;;13.80;99.90;;;;;;5071994;28;20169;-70
2022/06/09 03:40:08;;;;;;;1999.90;999.90;;;13.70;99.90;;;;;;5085455;22;20249;-71
2022/06/09 03:42:34;;;;;;;1999.90;999.90;;;13.80;99.90;;;;;;5072085;28;20171;-72
2022/06/09 03:45:01;;;;;;;1999.90;999.90;;;13.80;99.90;;;;;;5071737;28;20396;-71
2022/06/09 03:47:27;;;;;;;1999.90;999.90;;;13.80;99.90;;;;;;5071955;28;20210;-70
2022/06/09 03:49:52;;;;;;;1999.90;999.90;;;13.80;99.90;;;;;;5071860;28;20856;-71
2022/06/09 03:52:18;;;;;;;1999.90;999.90;;;13.80;99.90;;;;;;5071833;28;20172;-72
2022/06/09 03:54:44;;;;;;;1999.90;999.90;;;13.80;99.90;;;;;;5071635;28;20174;-71
2022/06/09 03:57:10;;;;;;;1999.90;999.90;;;13.90;99.90;;;;;;5071836;28;20172;-71
2022/06/09 03:59:36;;;;;;;1999.90;999.90;;;14.00;99.90;;;;;;5071717;28;20464;-71
2022/06/09 04:02:01;;;;;;;1999.90;999.90;;;13.90;99.90;;;;;;5070509;28;20985;-70
2022/06/09 04:04:27;;;;;;;1999.90;999.90;;;13.90;99.90;;;;;;5071518;28;20195;-70
2022/06/09 04:06:53;;;;;;;1999.90;999.90;;;14.00;99.90;;;;;;5071765;28;20163;-71
2022/06/09 04:09:20;;;;;;;1999.90;999.90;;;14.00;99.90;;;;;;5071584;28;20198;-70
2022/06/09 04:11:46;;;;;;;1999.90;999.90;;;14.00;99.90;;;;;;5074706;28;20448;-71
2022/06/09 04:14:11;;;;;;;1999.90;999.90;;;14.00;99.90;;;;;;5075491;28;20931;-70
2022/06/09 04:16:40;;;;;;;1999.90;999.90;;;14.00;99.90;;;;;;5075658;28;20494;-71
2022/06/09 04:19:09;;;;;;;1999.90;999.90;;;13.90;99.90;;;;;;5075445;28;20210;-70
2022/06/09 04:21:37;;;;;;;1999.90;999.90;;;14.00;99.90;;;;;;5075637;28;20397;-72
2022/06/09 04:24:03;;;;;;;1999.90;999.90;;;14.00;99.90;;;;;;5075279;28;20455;-71
2022/06/09 04:26:33;;;;;;;1999.90;999.90;;;14.00;99.90;;;;;;5074255;28;20397;-71
2022/06/09 04:28:58;;;;;;;1999.90;999.90;;;14.10;99.90;;;;;;5075417;28;20783;-71
2022/06/09 04:31:24;;;;;;;1999.90;999.90;;;14.00;99.90;;;;;;5075420;28;20552;-70
2022/06/09 04:33:50;;;;;;;1999.90;999.90;;;14.10;99.90;;;;;;5075327;28;20216;-71
2022/06/09 04:36:17;;;;;;;1999.90;999.90;;;14.00;99.90;;;;;;5075056;28;20172;-71
2022/06/09 04:38:43;;;;;;;1999.90;999.90;;;14.10;99.90;;;;;;5075021;28;20696;-71
2022/06/09 04:41:10;;;;;;;1999.90;999.90;;;14.10;99.90;;;;;;5075083;28;20478;-71
2022/06/09 04:43:37;;;;;;;1999.90;999.90;;;14.10;99.90;;;;;;5075149;28;20432;-68
2022/06/09 04:46:04;;;;;;;1999.90;999.90;;;14.20;99.90;;;;;;5073485;28;20469;-69
2022/06/09 04:48:31;;;;;;;1999.90;999.90;;;14.30;99.90;;;;;;5075005;28;20411;-69
2022/06/09 04:50:56;;;;;;;1999.90;999.90;;;14.30;99.90;;;;;;5075119;28;20440;-69
2022/06/09 04:53:22;;;;;;;1999.90;999.90;;;14.40;99.90;;;;;;5075171;28;20410;-68
2022/06/09 04:55:48;;;;;;;1999.90;999.90;;;14.50;99.90;;;;;;5074688;28;20170;-69
2022/06/09 04:58:14;;;;;;;1999.90;999.90;;;14.50;99.90;;;;;;5074819;28;20198;-68
2022/06/09 05:00:40;;;;;;;1999.90;999.90;;;14.60;99.90;;;;;;5074755;28;20185;-68
2022/06/09 05:03:11;;;;;;;1999.90;999.90;;;14.70;99.90;;;;;;5074906;28;20200;-69
2022/06/09 05:05:38;;;;;;;1999.90;999.90;;;14.80;99.90;;;;;;5074686;28;20393;-68
2022/06/09 05:08:04;;;;;;;1999.90;999.90;;;14.90;99.90;;;;;;5074641;28;20411;-69
2022/06/09 05:10:29;;;;;;;1999.90;999.90;;;15.00;99.90;;;;;;5074558;28;20451;-68
2022/06/09 05:12:56;;;;;;;1999.90;999.90;;;15.10;99.90;;;;;;5074638;28;20577;-68
2022/06/09 05:15:23;;;;;;;1999.90;999.90;;;15.10;99.90;;;;;;5074127;28;20167;-69
2022/06/09 05:17:49;;;;;;;1999.90;999.90;;;15.20;99.90;;;;;;5074837;28;20409;-69
2022/06/09 05:20:19;;;;;;;1999.90;999.90;;;15.20;99.90;;;;;;5074461;28;20418;-68
2022/06/09 05:22:44;;;;;;;1999.90;999.90;;;15.10;99.90;;;;;;5073662;28;20399;-69
2022/06/09 05:25:11;;;;;;;1999.90;999.90;;;15.10;99.90;;;;;;5074150;28;20401;-68
2022/06/09 05:27:37;;;;;;;1999.90;999.90;;;15.10;99.90;;;;;;5074352;28;20218;-68
2022/06/09 05:30:09;;;;;;;1999.90;999.90;;;15.10;99.90;;;;;;5074207;28;20421;-69
2022/06/09 05:32:35;;;;;;;1999.90;999.90;;;15.10;99.90;;;;;;5074352;28;20770;-68
2022/06/09 05:35:00;;;;;;;1999.90;999.90;;;15.20;99.90;;;;;;5073983;28;20401;-69
2022/06/09 05:44:50;;;;;;;1999.90;999.90;;;15.20;99.90;;;;;;5074211;28;20219;-69
2022/06/09 05:45:40;;;;;;;1999.90;999.90;;;15.20;99.90;;;;;;5073880;28;20436;-68
2022/06/09 05:48:06;;;;;;;1999.90;999.90;;;15.20;99.90;;;;;;5073980;28;20403;-68
2022/06/09 05:50:32;;;;;;;1999.90;999.90;;;15.20;99.90;;;;;;5073866;28;20566;-67
2022/06/09 05:52:57;;;;;;;1999.90;999.90;;;15.10;99.90;;;;;;5073895;28;20439;-68
2022/06/09 05:55:23;;;;;;;1999.90;999.90;;;15.10;99.90;;;;;;5073619;28;20160;-66
2022/06/09 05:57:48;;;;;;;1999.90;999.90;;;15.00;99.90;;;;;;5073757;28;20193;-66
2022/06/09 06:00:14;;;;;;;1999.90;999.90;;;15.00;99.90;;;;;;5073726;28;20189;-68
2022/06/09 06:02:40;;;;;;;1999.90;999.90;;;15.10;99.90;;;;;;5073786;28;20171;-68
2022/06/09 06:06:33;;;;;;;1999.90;999.90;;;15.00;99.90;;;;;;5073355;28;20405;-66
2022/06/09 06:07:51;;;;;;;1999.90;999.90;;;15.00;99.90;;;;;;5073487;28;20174;-66
2022/06/09 06:10:17;;;;;;;1999.90;999.90;;;15.00;99.90;;;;;;5073495;28;20418;-66
2022/06/09 06:12:43;;;;;;;1999.90;999.90;;;15.00;99.90;;;;;;5073511;28;20640;-66
2022/06/09 06:15:08;;;;;;;1999.90;999.90;;;15.00;99.90;;;;;;5073185;28;20164;-69
2022/06/09 06:17:35;;;;;;;1999.90;999.90;;;15.00;99.90;;;;;;5073413;28;20577;-68
2022/06/09 06:20:01;;;;;;;1999.90;999.90;;;15.00;99.90;;;;;;5073155;28;20458;-67
2022/06/09 06:22:27;;;;;;;1999.90;999.90;;;15.20;99.90;;;;;;5073222;28;20930;-66
2022/06/09 06:24:52;;;;;;;1999.90;999.90;;;15.10;99.90;;;;;;5072997;28;20243;-67
2022/06/09 06:27:18;;;;;;;1999.90;999.90;;;15.10;99.90;;;;;;5073201;28;20195;-68
2022/06/09 06:29:43;;;;;;;1999.90;999.90;;;15.20;99.90;;;;;;5073122;28;20264;-68
2022/06/09 06:32:09;;;;;;;1999.90;999.90;;;15.20;99.90;;;;;;5073134;28;20176;-68
2022/06/09 06:34:35;;;;;;;1999.90;999.90;;;15.30;99.90;;;;;;5072696;28;20242;-68
2022/06/09 06:37:00;;;;;;;1999.90;999.90;;;15.30;99.90;;;;;;5073039;28;20189;-69
2022/06/09 06:39:26;;;;;;;1999.90;999.90;;;15.30;99.90;;;;;;5072646;28;20237;-68
2022/06/09 06:41:51;;;;;;;1999.90;999.90;;;15.40;99.90;;;;;;5072947;28;20161;-68
2022/06/09 06:44:17;;;;;;;1999.90;999.90;;;15.40;99.90;;;;;;5072499;28;20225;-68
2022/06/09 06:46:42;;;;;;;1999.90;999.90;;;15.40;99.90;;;;;;5072844;28;20174;-68
2022/06/09 06:49:08;;;;;;;1999.90;999.90;;;15.40;99.90;;;;;;5072731;28;20184;-68
2022/06/09 06:51:36;;;;;;;1999.90;999.90;;;15.30;99.90;;;;;;5072766;28;20181;-68
2022/06/09 06:54:04;;;;;;;1999.90;999.90;;;15.40;99.90;;;;;;5072446;28;20568;-68
2022/06/09 06:56:31;;;;;;;1999.90;999.90;;;15.40;99.90;;;;;;5072604;28;20900;-68
2022/06/09 06:58:57;;;;;;;1999.90;999.90;;;15.40;99.90;;;;;;5072374;28;20462;-68
2022/06/09 07:01:22;;;;;;;1999.90;999.90;;;15.50;99.90;;;;;;5072580;28;20402;-68
2022/06/09 07:03:48;;;;;;;1999.90;999.90;;;15.50;99.90;;;;;;5072413;28;20170;-68
2022/06/09 07:06:14;;;;;;;1999.90;999.90;;;15.50;99.90;;;;;;5072220;28;20175;-68
2022/06/09 07:08:39;;;;;;;1999.90;999.90;;;15.60;99.90;;;;;;5072376;28;20174;-68
2022/06/09 07:11:06;;;;;;;1999.90;999.90;;;15.60;99.90;;;;;;5072621;28;20239;-68
2022/06/09 07:13:33;;;;;;;1999.90;999.90;;;15.60;99.90;;;;;;5072419;28;20321;-68
2022/06/09 07:15:59;;;;;;;1999.90;999.90;;;15.60;99.90;;;;;;5072011;28;20423;-68
2022/06/09 07:18:24;;;;;;;1999.90;999.90;;;15.70;99.90;;;;;;5072138;28;20452;-68
2022/06/09 07:20:50;;;;;;;1999.90;999.90;;;15.70;99.90;;;;;;5072482;28;20193;-68
2022/06/09 07:23:16;;;;;;;1999.90;999.90;;;15.70;99.90;;;;;;5072272;28;20173;-68
2022/06/09 07:25:42;;;;;;;1999.90;999.90;;;15.70;99.90;;;;;;5072032;28;20185;-67
2022/06/09 07:28:08;;;;;;;1999.90;999.90;;;15.80;99.90;;;;;;5072224;28;20944;-68
2022/06/09 07:30:33;;;;;;;1999.90;999.90;;;15.90;99.90;;;;;;5072096;28;20615;-68
2022/06/09 07:32:59;;;;;;;1999.90;999.90;;;15.80;99.90;;;;;;5072029;28;20406;-68
2022/06/09 07:35:27;;;;;;;1999.90;999.90;;;15.80;99.90;;;;;;5071798;28;20178;-68
2022/06/09 07:37:53;;;;;;;1999.90;999.90;;;15.90;99.90;;;;;;5071978;28;20246;-68
2022/06/09 07:40:19;;;;;;;1999.90;999.90;;;15.90;99.90;;;;;;5071952;28;20538;-68
2022/06/09 07:42:44;;;;;;;1999.90;999.90;;;16.00;99.90;;;;;;5071982;28;20963;-68
2022/06/09 07:45:12;;;;;;;1999.90;999.90;;;16.00;99.90;;;;;;5071309;28;20165;-69
2022/06/09 07:47:38;;;;;;;1999.90;999.90;;;15.90;99.90;;;;;;5071899;28;20169;-68
2022/06/09 07:50:05;;;;;;;1999.90;999.90;;;16.00;99.90;;;;;;5071926;28;20426;-68
2022/06/09 07:52:31;;;;;;;1999.90;999.90;;;15.90;99.90;;;;;;5071851;28;20405;-68
2022/06/09 07:54:57;;;;;;;1999.90;999.90;;;16.00;99.90;;;;;;5071655;28;20412;-68
2022/06/09 07:57:23;;;;;;;1999.90;999.90;;;16.00;99.90;;;;;;5071892;28;20167;-68
2022/06/09 07:59:48;;;;;;;1999.90;999.90;;;16.00;99.90;;;;;;5071635;28;20453;-68
2022/06/09 08:02:14;;;;;;;1999.90;999.90;;;16.00;99.90;;;;;;5071925;28;20192;-69
2022/06/09 08:04:40;;;;;;;1999.90;999.90;;;16.10;99.90;;;;;;5071871;28;20170;-69
2022/06/09 08:07:06;;;;;;;1999.90;999.90;;;16.10;99.90;;;;;;5072143;28;20172;-69
2022/06/09 08:09:32;;;;;;;1999.90;999.90;;;16.20;99.90;;;;;;5072071;28;20734;-69
2022/06/09 08:11:57;;;;;;;1999.90;999.90;;;16.20;99.90;;;;;;5072049;28;20162;-69
2022/06/09 08:14:23;;;;;;;1999.90;999.90;;;16.20;99.90;;;;;;5071951;28;20478;-68
2022/06/09 08:16:49;;;;;;;1999.90;999.90;;;16.30;99.90;;;;;;5071935;28;20174;-67
2022/06/09 08:19:15;;;;;;;1999.90;999.90;;;16.40;99.90;;;;;;5071912;28;20465;-69
2022/06/09 08:21:41;;;;;;;1999.90;999.90;;;16.60;99.90;;;;;;5071992;28;20169;-69
2022/06/09 08:24:07;;;;;;;1999.90;999.90;;;16.80;99.90;;;;;;5071778;28;20174;-69
2022/06/09 08:26:32;;;;;;;1999.90;999.90;;;16.80;99.90;;;;;;5071833;28;20406;-69
2022/06/09 08:28:58;;;;;;;1999.90;999.90;;;16.80;99.90;;;;;;5071967;28;20821;-69
2022/06/09 08:31:24;;;;;;;1999.90;999.90;;;16.70;99.90;;;;;;5071839;28;20206;-68
2022/06/09 08:33:49;;;;;;;1999.90;999.90;;;16.70;99.90;;;;;;5072033;28;20687;-69
2022/06/09 08:36:15;;;;;;;1999.90;999.90;;;16.70;99.90;;;;;;5071980;28;20171;-69
2022/06/09 08:38:42;;;;;;;1999.90;999.90;;;16.70;99.90;;;;;;5071006;28;20191;-69
2022/06/09 08:41:36;;;;;;;1999.90;999.90;;;16.70;99.90;;;;;;5072032;28;20426;-70
2022/06/09 08:44:05;;;;;;;1999.90;999.90;;;16.60;99.90;;;;;;5066405;28;20411;-69
2022/06/09 08:47:22;;;;;;;1999.90;999.90;;;16.50;99.90;;;;;;5072069;28;20431;-69
2022/06/09 08:50:00;;;;;;;1999.90;999.90;;;16.50;99.90;;;;;;5029658;28;20437;-68
2022/06/09 08:52:44;;;;;;;1999.90;999.90;;;16.60;99.90;;;;;;5029646;28;20409;-70
2022/06/09 08:55:28;;;;;;;1999.90;999.90;;;16.80;99.90;;;;;;5061122;28;20422;-68
2022/06/09 08:58:20;;;;;;;1999.90;999.90;;;16.90;99.90;;;;;;5072537;28;20496;-69
2022/06/09 09:00:54;;;;;;;1999.90;999.90;;;16.90;99.90;;;;;;5068903;28;20440;-68
2022/06/09 09:03:28;;;;;;;1999.90;999.90;;;17.10;99.90;;;;;;5074867;28;20484;-69
2022/06/09 09:06:04;;;;;;;1999.90;999.90;;;17.10;99.90;;;;;;5074581;28;20417;-68
2022/06/09 09:08:30;;;;;;;1999.90;999.90;;;17.20;99.90;;;;;;5074802;28;20408;-69
2022/06/09 09:11:05;;;;;;;1999.90;999.90;;;17.20;99.90;;;;;;5074552;28;21001;-69
2022/06/09 09:13:47;;;;;;;1999.90;999.90;;;17.20;99.90;;;;;;5074882;28;20510;-67
2022/06/09 09:16:39;;;;;;;1999.90;999.90;;;17.20;99.90;;;;;;5074355;28;20412;-67
2022/06/09 09:19:27;;;;;;;1999.90;999.90;;;17.30;99.90;;;;;;5074419;28;20470;-69
2022/06/09 09:22:17;;;;;;;1999.90;999.90;;;17.40;99.90;;;;;;5074611;28;20852;-67
2022/06/09 09:24:55;;;;;;;1999.90;999.90;;;17.50;99.90;;;;;;5074186;28;20399;-69
2022/06/09 09:27:43;;;;;;;1999.90;999.90;;;17.60;99.90;;;;;;5074535;28;20403;-69
2022/06/09 09:30:22;;;;;;;1999.90;999.90;;;17.60;99.90;;;;;;5074359;28;20470;-69
2022/06/09 09:32:54;;;;;;;1999.90;999.90;;;17.60;99.90;;;;;;5074454;28;20409;-69
2022/06/09 09:35:40;;;;;;;1999.90;999.90;;;17.80;99.90;;;;;;5074031;28;20412;-70
2022/06/09 09:38:07;;;;;;;1999.90;999.90;;;17.90;99.90;;;;;;5074111;28;20403;-69
2022/06/09 09:40:37;;;;;;;1999.90;999.90;;;17.90;99.90;;;;;;5087755;22;20982;-67
2022/06/09 09:43:09;;;;;;;1999.90;999.90;;;18.00;99.90;;;;;;5074188;28;20596;-69
2022/06/09 09:45:39;;;;;;;1999.90;999.90;;;18.30;99.90;;;;;;5073895;28;20395;-69
2022/06/09 09:48:27;;;;;;;1999.90;999.90;;;18.70;99.90;;;;;;5074023;28;20400;-69
2022/06/09 09:51:00;;;;;;;1999.90;999.90;;;19.00;99.90;;;;;;5073805;28;20431;-69
2022/06/09 09:53:31;;;;;;;1999.90;999.90;;;19.30;99.90;;;;;;5074081;28;20395;-69
2022/06/09 09:56:14;;;;;;;1999.90;999.90;;;19.50;99.90;;;;;;5073592;28;20453;-69
2022/06/09 09:58:48;;;;;;;1999.90;999.90;;;19.50;99.90;;;;;;5073760;28;20441;-69
2022/06/09 10:01:17;;;;;;;1999.90;999.90;;;19.60;99.90;;;;;;5073919;28;20460;-69
2022/06/09 10:09:54;;;;;;;1999.90;999.90;;;19.80;99.90;;;;;;5053523;28;20484;-69
2022/06/09 10:12:23;;;;;;;1999.90;999.90;;;19.80;99.90;;;;;;5053615;28;20880;-69
2022/06/09 10:14:55;;;;;;;1999.90;999.90;;;19.80;99.90;;;;;;5053264;28;20399;-69
2022/06/09 10:17:26;;;;;;;1999.90;999.90;;;19.80;99.90;;;;;;5053361;28;20421;-69
2022/06/09 10:20:15;;;;;;;1999.90;999.90;;;19.40;99.90;;;;;;5053253;28;20449;-69
2022/06/09 10:23:09;;;;;;;1999.90;999.90;;;19.30;99.90;;;;;;5053408;28;20899;-69
2022/06/09 10:26:09;;;;;;;1999.90;999.90;;;19.30;99.90;;;;;;5053025;28;20741;-69
2022/06/09 10:28:54;;;;;;;1999.90;999.90;;;19.30;99.90;;;;;;5053139;28;20416;-69
2022/06/09 10:31:25;;;;;;;1999.90;999.90;;;19.40;99.90;;;;;;5052962;28;20434;-69
2022/06/09 10:34:18;;;;;;;1999.90;999.90;;;19.80;99.90;;;;;;5052967;28;20415;-69
2022/06/09 10:37:01;;;;;;;1999.90;999.90;;;20.00;99.90;;;;;;5053286;28;20406;-69
2022/06/09 10:39:41;;;;;;;1999.90;999.90;;;20.20;99.90;;;;;;5052814;28;20465;-69
2022/06/09 10:42:22;;;;;;;1999.90;999.90;;;20.30;99.90;;;;;;5053018;28;20407;-69
2022/06/09 10:44:56;;;;;;;1999.90;999.90;;;20.10;99.90;;;;;;5052627;28;20400;-69
2022/06/09 10:56:58;;;;;;;1999.90;999.90;;;20.90;99.90;;;;;;5052728;28;20396;-70
2022/06/09 10:59:46;;;;;;;1999.90;999.90;;;21.30;99.90;;;;;;5052432;28;20870;-69
2022/06/09 11:02:21;;;;;;;1999.90;999.90;;;21.30;99.90;;;;;;5052609;28;20405;-69
2022/06/09 11:04:49;;;;;;;1999.90;999.90;;;21.10;99.90;;;;;;5052390;28;20388;-69
2022/06/09 11:07:39;;;;;;;1999.90;999.90;;;21.10;99.90;;;;;;5052420;28;20975;-70
2022/06/09 11:10:12;;;;;;;1999.90;999.90;;;20.80;99.90;;;;;;5052344;28;20417;-70
2022/06/09 11:12:56;;;;;;;1999.90;999.90;;;20.60;99.90;;;;;;5052601;28;20507;-70
2022/06/09 11:15:46;;;;;;;1999.90;999.90;;;20.30;99.90;;;;;;5052118;28;20407;-71
2022/06/09 11:18:50;;;;;;;1999.90;999.90;;;20.20;99.90;;;;;;5052284;28;20503;-69
2022/06/09 11:21:35;;;;;;;1999.90;999.90;;;20.20;99.90;;;;;;5049230;28;20862;-69
2022/06/09 11:24:19;;;;;;;1999.90;999.90;;;20.20;99.90;;;;;;5051920;28;20412;-70
2022/06/09 11:27:03;;;;;;;1999.90;999.90;;;20.50;99.90;;;;;;5052171;28;20401;-70
2022/06/09 11:29:49;;;;;;;1999.90;999.90;;;20.60;99.90;;;;;;5052255;28;20462;-70
2022/06/09 11:32:38;;;;;;;1999.90;999.90;;;20.60;99.90;;;;;;5052153;28;20404;-70
2022/06/09 11:35:36;;;;;;;1999.90;999.90;;;21.00;99.90;;;;;;5051998;28;20440;-70
2022/06/09 11:38:29;;;;;;;1999.90;999.90;;;21.30;99.90;;;;;;5051935;28;20411;-69
2022/06/09 11:41:12;;;;;;;1999.90;999.90;;;21.30;99.90;;;;;;5051675;28;20440;-67
2022/06/09 11:43:56;;;;;;;1999.90;999.90;;;21.70;99.90;;;;;;5052054;28;20887;-67
2022/06/09 11:46:26;;;;;;;1999.90;999.90;;;21.80;99.90;;;;;;5051810;28;20391;-67
2022/06/09 11:48:59;;;;;;;1999.90;999.90;;;22.30;99.90;;;;;;5051938;28;20441;-68
2022/06/09 11:51:27;;;;;;;1999.90;999.90;;;22.40;99.90;;;;;;5051784;28;20920;-67
2022/06/09 11:53:57;;;;;;;1999.90;999.90;;;22.00;99.90;;;;;;5051913;28;20439;-67
2022/06/09 11:56:33;;;;;;;1999.90;999.90;;;21.70;99.90;;;;;;5051853;28;20408;-67
2022/06/09 11:59:05;;;;;;;1999.90;999.90;;;21.40;99.90;;;;;;5051823;28;20853;-68
2022/06/09 12:01:39;;;;;;;1999.90;999.90;;;21.50;99.90;;;;;;5051818;28;20493;-67
2022/06/09 12:04:41;;;;;;;1999.90;999.90;;;22.00;99.90;;;;;;5051512;28;20406;-67
2022/06/09 12:07:32;;;;;;;1999.90;999.90;;;22.60;99.90;;;;;;5051765;28;20845;-67
2022/06/09 12:10:28;;;;;;;1999.90;999.90;;;23.20;99.90;;;;;;5051485;28;20925;-67
2022/06/09 12:13:12;;;;;;;1999.90;999.90;;;23.30;99.90;;;;;;5051755;28;20479;-67
2022/06/09 12:15:49;;;;;;;1999.90;999.90;;;23.70;99.90;;;;;;5051455;28;20412;-68
2022/06/09 12:18:16;;;;;;;1999.90;999.90;;;24.40;99.90;;;;;;5050925;28;20466;-67
2022/06/09 12:20:48;;;;;;;1999.90;999.90;;;24.80;99.90;;;;;;5051221;28;20412;-68
2022/06/09 12:23:40;;;;;;;1999.90;999.90;;;25.40;99.90;;;;;;5051435;28;20761;-68
2022/06/09 12:28:52;;;;;;;1999.90;999.90;;;25.60;99.90;;;;;;5041193;23;20511;-68
2022/06/09 12:31:19;;;;;;;1999.90;999.90;;;24.90;99.90;;;;;;5011539;28;20454;-67
2022/06/09 12:33:55;;;;;;;1999.90;999.90;;;24.30;99.90;;;;;;5014735;28;20430;-67
2022/06/09 12:36:33;;;;;;;1999.90;999.90;;;22.80;99.90;;;;;;5014383;28;20463;-67
2022/06/09 12:39:00;;;;;;;1999.90;999.90;;;21.20;99.90;;;;;;5051895;23;20487;-70
2022/06/09 12:41:38;;;;;;;1999.90;999.90;;;19.70;99.90;;;;;;4997162;28;20405;-68